Las Vegas, Nevada
Traffic Map
Current Weather Conditions
Las Vegas, Nevada
Clear
Clear
23°
Feels Like: 23°
Wind Chill: 23° Ceiling: Unl
Heat Index: 23° Visibility: 10mi
Dew Point: Wind: 14mph
Humidity: 26% Direction: 190° (S)
Pressure: 29.87in Gusts: 24mph
Raw Report DataKLAS 211556Z 19012G21KT 10SM CLR 23/03 A2987 RMK AO2 SLP093 T02330028
Traffic Incident Summary
Active as of:
Severity:
Category:
InformationThere was an issue retrieving the traffic information for this location. Please try a different location or try again shortly.
Advertisements
Track Severe Weather on mobile